Winnebago, Wisconsin
Current Conditions -  °F | °C
As of 6:21 AM on Thursday 29 Jan 2015 (Local Time) from KOSH Reporting Station
Haze Haze  
Wind Chill: 19°   Ceiling: 1100
Heat Index: 30°   Visibility: 4mi
Dew Point: 25°   Wind: 16mph
Humidity: 82%   Direction: 320°NW
Pressure: 29.79"   Gusts: 24mph
Location:  44.08°N, 88.53°W
Report Text: KOSH 291221Z 32014G21KT 4SM HZ BKN011 BKN055 OVC070 M01/M04 A2979 RMK AO2 T10111039
Loading
Personal Weather Stations






























Interactive Weather Map New forecast layout! Learn more

10-Day Weather Forecast

Advertisements
Track Severe Weather on mobile